<?xml version="1.0" encoding="UTF-8" standalone="no" ?>
<gpx xmlns="http://www.topografix.com/GPX/1/1" xmlns:xsi="http://www.w3.org/2001/XMLSchema-instance" xsi:schemaLocation="http://www.topografix.com/GPX/1/1 http://www.topografix.com/GPX/1/1/gpx.xsd" version="1.1" creator="VisuGPX - https://www.visugpx.com">
  <metadata>
    <name>Trace TV 2014 J1</name>
    <desc><![CDATA[Trace TV 2014 J1 - Première participation avec mon CUBE]]></desc>
  </metadata>
  <trk>
    <name><![CDATA[20180601145005-xrCrT]]></name>
    <trkseg>
      <trkpt lat="44.28452" lon="5.28301">
        <ele>383</ele>
        <time>2014-05-17T05:09:31Z</time>
      </trkpt>
      <trkpt lat="44.28426" lon="5.28268">
        <ele>380.9</ele>
        <time>2014-05-17T05:18:38Z</time>
      </trkpt>
      <trkpt lat="44.28407" lon="5.2821">
        <ele>378.5</ele>
        <time>2014-05-17T05:18:47Z</time>
      </trkpt>
      <trkpt lat="44.28363" lon="5.2819">
        <ele>377.1</ele>
        <time>2014-05-17T05:19:00Z</time>
      </trkpt>
      <trkpt lat="44.28319" lon="5.28166">
        <ele>377</ele>
        <time>2014-05-17T05:19:12Z</time>
      </trkpt>
      <trkpt lat="44.28276" lon="5.28136">
        <ele>375.9</ele>
        <time>2014-05-17T05:19:25Z</time>
      </trkpt>
      <trkpt lat="44.28233" lon="5.28106">
        <ele>374.8</ele>
        <time>2014-05-17T05:19:37Z</time>
      </trkpt>
      <trkpt lat="44.28191" lon="5.2808">
        <ele>374.8</ele>
        <time>2014-05-17T05:19:48Z</time>
      </trkpt>
      <trkpt lat="44.28146" lon="5.28049">
        <ele>374.3</ele>
        <time>2014-05-17T05:19:59Z</time>
      </trkpt>
      <trkpt lat="44.28104" lon="5.28021">
        <ele>373.8</ele>
        <time>2014-05-17T05:20:09Z</time>
      </trkpt>
      <trkpt lat="44.2807" lon="5.2803">
        <ele>375.5</ele>
        <time>2014-05-17T05:20:20Z</time>
      </trkpt>
      <trkpt lat="44.28068" lon="5.28094">
        <ele>376.7</ele>
        <time>2014-05-17T05:20:34Z</time>
      </trkpt>
      <trkpt lat="44.28069" lon="5.28159">
        <ele>377.5</ele>
        <time>2014-05-17T05:20:46Z</time>
      </trkpt>
      <trkpt lat="44.28067" lon="5.28224">
        <ele>378.1</ele>
        <time>2014-05-17T05:21:02Z</time>
      </trkpt>
      <trkpt lat="44.28056" lon="5.2829">
        <ele>381.9</ele>
        <time>2014-05-17T05:21:22Z</time>
      </trkpt>
      <trkpt lat="44.28046" lon="5.28354">
        <ele>387.9</ele>
        <time>2014-05-17T05:21:43Z</time>
      </trkpt>
      <trkpt lat="44.28032" lon="5.28413">
        <ele>392.1</ele>
        <time>2014-05-17T05:22:06Z</time>
      </trkpt>
      <trkpt lat="44.28018" lon="5.28478">
        <ele>393</ele>
        <time>2014-05-17T05:22:31Z</time>
      </trkpt>
      <trkpt lat="44.28007" lon="5.28541">
        <ele>394.4</ele>
        <time>2014-05-17T05:22:57Z</time>
      </trkpt>
      <trkpt lat="44.27996" lon="5.28605">
        <ele>400.1</ele>
        <time>2014-05-17T05:23:19Z</time>
      </trkpt>
      <trkpt lat="44.27972" lon="5.2866">
        <ele>402.5</ele>
        <time>2014-05-17T05:23:42Z</time>
      </trkpt>
      <trkpt lat="44.27935" lon="5.28697">
        <ele>402.6</ele>
        <time>2014-05-17T05:24:05Z</time>
      </trkpt>
      <trkpt lat="44.27912" lon="5.28751">
        <ele>405.9</ele>
        <time>2014-05-17T05:24:28Z</time>
      </trkpt>
      <trkpt lat="44.27894" lon="5.28811">
        <ele>407</ele>
        <time>2014-05-17T05:24:51Z</time>
      </trkpt>
      <trkpt lat="44.27887" lon="5.28873">
        <ele>409.9</ele>
        <time>2014-05-17T05:25:16Z</time>
      </trkpt>
      <trkpt lat="44.2789" lon="5.2894">
        <ele>412.3</ele>
        <time>2014-05-17T05:25:40Z</time>
      </trkpt>
      <trkpt lat="44.27883" lon="5.29004">
        <ele>415.8</ele>
        <time>2014-05-17T05:26:03Z</time>
      </trkpt>
      <trkpt lat="44.27866" lon="5.29063">
        <ele>419.5</ele>
        <time>2014-05-17T05:26:27Z</time>
      </trkpt>
      <trkpt lat="44.27859" lon="5.29129">
        <ele>425.1</ele>
        <time>2014-05-17T05:26:51Z</time>
      </trkpt>
      <trkpt lat="44.27842" lon="5.29189">
        <ele>426.1</ele>
        <time>2014-05-17T05:27:14Z</time>
      </trkpt>
      <trkpt lat="44.27828" lon="5.29252">
        <ele>427.6</ele>
        <time>2014-05-17T05:27:38Z</time>
      </trkpt>
      <trkpt lat="44.27816" lon="5.29316">
        <ele>430.1</ele>
        <time>2014-05-17T05:28:03Z</time>
      </trkpt>
      <trkpt lat="44.27812" lon="5.29385">
        <ele>433.5</ele>
        <time>2014-05-17T05:28:28Z</time>
      </trkpt>
      <trkpt lat="44.27817" lon="5.29447">
        <ele>436.4</ele>
        <time>2014-05-17T05:28:52Z</time>
      </trkpt>
      <trkpt lat="44.27832" lon="5.29508">
        <ele>440</ele>
        <time>2014-05-17T05:29:16Z</time>
      </trkpt>
      <trkpt lat="44.27827" lon="5.29571">
        <ele>441.6</ele>
        <time>2014-05-17T05:29:43Z</time>
      </trkpt>
      <trkpt lat="44.27832" lon="5.29635">
        <ele>446.5</ele>
        <time>2014-05-17T05:30:09Z</time>
      </trkpt>
      <trkpt lat="44.27831" lon="5.29698">
        <ele>450.5</ele>
        <time>2014-05-17T05:30:35Z</time>
      </trkpt>
      <trkpt lat="44.2783" lon="5.2976">
        <ele>452.1</ele>
        <time>2014-05-17T05:31:01Z</time>
      </trkpt>
      <trkpt lat="44.27856" lon="5.29815">
        <ele>460.2</ele>
        <time>2014-05-17T05:31:25Z</time>
      </trkpt>
      <trkpt lat="44.27852" lon="5.2988">
        <ele>460.1</ele>
        <time>2014-05-17T05:31:50Z</time>
      </trkpt>
      <trkpt lat="44.2786" lon="5.29946">
        <ele>462.5</ele>
        <time>2014-05-17T05:32:17Z</time>
      </trkpt>
      <trkpt lat="44.27885" lon="5.29999">
        <ele>468.8</ele>
        <time>2014-05-17T05:32:40Z</time>
      </trkpt>
      <trkpt lat="44.27886" lon="5.30057">
        <ele>472.3</ele>
        <time>2014-05-17T05:33:04Z</time>
      </trkpt>
      <trkpt lat="44.27869" lon="5.30117">
        <ele>472.6</ele>
        <time>2014-05-17T05:33:28Z</time>
      </trkpt>
      <trkpt lat="44.27873" lon="5.3018">
        <ele>477.7</ele>
        <time>2014-05-17T05:33:49Z</time>
      </trkpt>
      <trkpt lat="44.27855" lon="5.30244">
        <ele>482.7</ele>
        <time>2014-05-17T05:34:15Z</time>
      </trkpt>
      <trkpt lat="44.27814" lon="5.30283">
        <ele>484.4</ele>
        <time>2014-05-17T05:34:42Z</time>
      </trkpt>
      <trkpt lat="44.27792" lon="5.30341">
        <ele>487.3</ele>
        <time>2014-05-17T05:35:04Z</time>
      </trkpt>
      <trkpt lat="44.27772" lon="5.30399">
        <ele>490.7</ele>
        <time>2014-05-17T05:35:26Z</time>
      </trkpt>
      <trkpt lat="44.27746" lon="5.30452">
        <ele>493.2</ele>
        <time>2014-05-17T05:35:50Z</time>
      </trkpt>
      <trkpt lat="44.27716" lon="5.30503">
        <ele>494.1</ele>
        <time>2014-05-17T05:36:12Z</time>
      </trkpt>
      <trkpt lat="44.27692" lon="5.30559">
        <ele>497.8</ele>
        <time>2014-05-17T05:36:35Z</time>
      </trkpt>
      <trkpt lat="44.27679" lon="5.30621">
        <ele>501.5</ele>
        <time>2014-05-17T05:36:58Z</time>
      </trkpt>
      <trkpt lat="44.27681" lon="5.30686">
        <ele>506.6</ele>
        <time>2014-05-17T05:37:21Z</time>
      </trkpt>
      <trkpt lat="44.27666" lon="5.30747">
        <ele>510.1</ele>
        <time>2014-05-17T05:37:43Z</time>
      </trkpt>
      <trkpt lat="44.27631" lon="5.3079">
        <ele>509.5</ele>
        <time>2014-05-17T05:38:05Z</time>
      </trkpt>
      <trkpt lat="44.2762" lon="5.30849">
        <ele>511.3</ele>
        <time>2014-05-17T05:38:27Z</time>
      </trkpt>
      <trkpt lat="44.27636" lon="5.30906">
        <ele>515.8</ele>
        <time>2014-05-17T05:39:36Z</time>
      </trkpt>
      <trkpt lat="44.27617" lon="5.30966">
        <ele>518.9</ele>
        <time>2014-05-17T05:39:56Z</time>
      </trkpt>
      <trkpt lat="44.27606" lon="5.31028">
        <ele>523</ele>
        <time>2014-05-17T05:40:17Z</time>
      </trkpt>
      <trkpt lat="44.27594" lon="5.3109">
        <ele>526.9</ele>
        <time>2014-05-17T05:40:45Z</time>
      </trkpt>
      <trkpt lat="44.27575" lon="5.31143">
        <ele>529.6</ele>
        <time>2014-05-17T05:41:15Z</time>
      </trkpt>
      <trkpt lat="44.27563" lon="5.31193">
        <ele>532.9</ele>
        <time>2014-05-17T05:41:40Z</time>
      </trkpt>
      <trkpt lat="44.2754" lon="5.31248">
        <ele>534.2</ele>
        <time>2014-05-17T05:42:06Z</time>
      </trkpt>
      <trkpt lat="44.27544" lon="5.31315">
        <ele>539.5</ele>
        <time>2014-05-17T05:42:31Z</time>
      </trkpt>
      <trkpt lat="44.27536" lon="5.31379">
        <ele>543</ele>
        <time>2014-05-17T05:42:55Z</time>
      </trkpt>
      <trkpt lat="44.27536" lon="5.31445">
        <ele>546</ele>
        <time>2014-05-17T05:43:19Z</time>
      </trkpt>
      <trkpt lat="44.27538" lon="5.31509">
        <ele>549.6</ele>
        <time>2014-05-17T05:43:44Z</time>
      </trkpt>
      <trkpt lat="44.27541" lon="5.31575">
        <ele>553.4</ele>
        <time>2014-05-17T05:44:09Z</time>
      </trkpt>
      <trkpt lat="44.27545" lon="5.31639">
        <ele>555.7</ele>
        <time>2014-05-17T05:44:34Z</time>
      </trkpt>
      <trkpt lat="44.27552" lon="5.31704">
        <ele>558.1</ele>
        <time>2014-05-17T05:44:59Z</time>
      </trkpt>
      <trkpt lat="44.27559" lon="5.31696">
        <ele>560.2</ele>
        <time>2014-05-17T05:45:50Z</time>
      </trkpt>
      <trkpt lat="44.27555" lon="5.31632">
        <ele>558.8</ele>
        <time>2014-05-17T05:46:05Z</time>
      </trkpt>
      <trkpt lat="44.27553" lon="5.31567">
        <ele>557.8</ele>
        <time>2014-05-17T05:46:22Z</time>
      </trkpt>
      <trkpt lat="44.27565" lon="5.31505">
        <ele>558.9</ele>
        <time>2014-05-17T05:46:40Z</time>
      </trkpt>
      <trkpt lat="44.276" lon="5.31489">
        <ele>567</ele>
        <time>2014-05-17T05:47:04Z</time>
      </trkpt>
      <trkpt lat="44.27606" lon="5.31563">
        <ele>569.4</ele>
        <time>2014-05-17T05:47:40Z</time>
      </trkpt>
      <trkpt lat="44.27616" lon="5.31626">
        <ele>575.9</ele>
        <time>2014-05-17T05:48:10Z</time>
      </trkpt>
      <trkpt lat="44.27613" lon="5.31694">
        <ele>579.8</ele>
        <time>2014-05-17T05:48:51Z</time>
      </trkpt>
      <trkpt lat="44.27618" lon="5.31732">
        <ele>587.6</ele>
        <time>2014-05-17T05:49:36Z</time>
      </trkpt>
      <trkpt lat="44.27626" lon="5.31781">
        <ele>599.3</ele>
        <time>2014-05-17T05:50:38Z</time>
      </trkpt>
      <trkpt lat="44.27636" lon="5.31841">
        <ele>608.4</ele>
        <time>2014-05-17T05:51:27Z</time>
      </trkpt>
      <trkpt lat="44.27647" lon="5.31901">
        <ele>614</ele>
        <time>2014-05-17T05:52:12Z</time>
      </trkpt>
      <trkpt lat="44.27671" lon="5.31895">
        <ele>620.3</ele>
        <time>2014-05-17T05:52:56Z</time>
      </trkpt>
      <trkpt lat="44.27667" lon="5.3195">
        <ele>627.2</ele>
        <time>2014-05-17T05:53:42Z</time>
      </trkpt>
      <trkpt lat="44.27643" lon="5.32004">
        <ele>629.9</ele>
        <time>2014-05-17T05:54:21Z</time>
      </trkpt>
      <trkpt lat="44.27631" lon="5.3207">
        <ele>635.9</ele>
        <time>2014-05-17T05:55:16Z</time>
      </trkpt>
      <trkpt lat="44.27619" lon="5.3214">
        <ele>639.1</ele>
        <time>2014-05-17T05:55:43Z</time>
      </trkpt>
      <trkpt lat="44.27601" lon="5.32206">
        <ele>640.6</ele>
        <time>2014-05-17T05:56:03Z</time>
      </trkpt>
      <trkpt lat="44.27568" lon="5.32259">
        <ele>640.7</ele>
        <time>2014-05-17T05:56:22Z</time>
      </trkpt>
      <trkpt lat="44.27547" lon="5.32318">
        <ele>643.6</ele>
        <time>2014-05-17T05:56:38Z</time>
      </trkpt>
      <trkpt lat="44.27549" lon="5.32384">
        <ele>644.3</ele>
        <time>2014-05-17T05:56:56Z</time>
      </trkpt>
      <trkpt lat="44.27557" lon="5.32446">
        <ele>646.9</ele>
        <time>2014-05-17T05:57:18Z</time>
      </trkpt>
      <trkpt lat="44.27551" lon="5.32515">
        <ele>651.7</ele>
        <time>2014-05-17T05:58:00Z</time>
      </trkpt>
      <trkpt lat="44.27549" lon="5.32584">
        <ele>656.7</ele>
        <time>2014-05-17T05:58:31Z</time>
      </trkpt>
      <trkpt lat="44.27543" lon="5.32646">
        <ele>667.4</ele>
        <time>2014-05-17T06:00:13Z</time>
      </trkpt>
      <trkpt lat="44.27528" lon="5.32711">
        <ele>679.8</ele>
        <time>2014-05-17T06:01:27Z</time>
      </trkpt>
      <trkpt lat="44.27489" lon="5.32747">
        <ele>682.4</ele>
        <time>2014-05-17T06:03:47Z</time>
      </trkpt>
      <trkpt lat="44.27458" lon="5.32795">
        <ele>687</ele>
        <time>2014-05-17T06:04:19Z</time>
      </trkpt>
      <trkpt lat="44.27427" lon="5.32846">
        <ele>689.1</ele>
        <time>2014-05-17T06:04:53Z</time>
      </trkpt>
      <trkpt lat="44.27438" lon="5.32907">
        <ele>694</ele>
        <time>2014-05-17T06:06:23Z</time>
      </trkpt>
      <trkpt lat="44.27424" lon="5.32957">
        <ele>694.5</ele>
        <time>2014-05-17T06:06:45Z</time>
      </trkpt>
      <trkpt lat="44.27402" lon="5.33013">
        <ele>696.6</ele>
        <time>2014-05-17T06:07:09Z</time>
      </trkpt>
      <trkpt lat="44.27394" lon="5.33079">
        <ele>701.7</ele>
        <time>2014-05-17T06:07:43Z</time>
      </trkpt>
      <trkpt lat="44.27381" lon="5.33144">
        <ele>709</ele>
        <time>2014-05-17T06:08:23Z</time>
      </trkpt>
      <trkpt lat="44.27364" lon="5.33217">
        <ele>721.6</ele>
        <time>2014-05-17T06:09:14Z</time>
      </trkpt>
      <trkpt lat="44.27347" lon="5.33283">
        <ele>730.8</ele>
        <time>2014-05-17T06:10:23Z</time>
      </trkpt>
      <trkpt lat="44.2734" lon="5.33355">
        <ele>740.1</ele>
        <time>2014-05-17T06:11:23Z</time>
      </trkpt>
      <trkpt lat="44.27361" lon="5.33418">
        <ele>745.8</ele>
        <time>2014-05-17T06:12:11Z</time>
      </trkpt>
      <trkpt lat="44.2738" lon="5.33474">
        <ele>752</ele>
        <time>2014-05-17T06:14:01Z</time>
      </trkpt>
      <trkpt lat="44.27424" lon="5.33495">
        <ele>764.7</ele>
        <time>2014-05-17T06:14:59Z</time>
      </trkpt>
      <trkpt lat="44.27441" lon="5.33447">
        <ele>763.1</ele>
        <time>2014-05-17T06:16:03Z</time>
      </trkpt>
      <trkpt lat="44.27451" lon="5.33387">
        <ele>765.2</ele>
        <time>2014-05-17T06:16:23Z</time>
      </trkpt>
      <trkpt lat="44.27485" lon="5.33363">
        <ele>772.2</ele>
        <time>2014-05-17T06:17:04Z</time>
      </trkpt>
      <trkpt lat="44.27512" lon="5.3331">
        <ele>779.2</ele>
        <time>2014-05-17T06:17:49Z</time>
      </trkpt>
      <trkpt lat="44.27548" lon="5.3327">
        <ele>788</ele>
        <time>2014-05-17T06:19:30Z</time>
      </trkpt>
      <trkpt lat="44.27589" lon="5.33231">
        <ele>798.7</ele>
        <time>2014-05-17T06:21:00Z</time>
      </trkpt>
      <trkpt lat="44.27627" lon="5.33212">
        <ele>807.4</ele>
        <time>2014-05-17T06:22:49Z</time>
      </trkpt>
      <trkpt lat="44.27638" lon="5.33231">
        <ele>814.2</ele>
        <time>2014-05-17T06:23:53Z</time>
      </trkpt>
      <trkpt lat="44.27623" lon="5.33291">
        <ele>818.7</ele>
        <time>2014-05-17T06:24:35Z</time>
      </trkpt>
      <trkpt lat="44.27621" lon="5.33355">
        <ele>823.9</ele>
        <time>2014-05-17T06:25:20Z</time>
      </trkpt>
      <trkpt lat="44.27612" lon="5.33416">
        <ele>824.2</ele>
        <time>2014-05-17T06:25:53Z</time>
      </trkpt>
      <trkpt lat="44.27607" lon="5.3348">
        <ele>825.1</ele>
        <time>2014-05-17T06:26:14Z</time>
      </trkpt>
      <trkpt lat="44.27612" lon="5.33551">
        <ele>830.7</ele>
        <time>2014-05-17T06:26:44Z</time>
      </trkpt>
      <trkpt lat="44.27596" lon="5.33618">
        <ele>836.6</ele>
        <time>2014-05-17T06:27:25Z</time>
      </trkpt>
      <trkpt lat="44.27575" lon="5.33692">
        <ele>843.3</ele>
        <time>2014-05-17T06:28:16Z</time>
      </trkpt>
      <trkpt lat="44.27572" lon="5.3376">
        <ele>846</ele>
        <time>2014-05-17T06:28:52Z</time>
      </trkpt>
      <trkpt lat="44.27569" lon="5.33829">
        <ele>847.1</ele>
        <time>2014-05-17T06:29:18Z</time>
      </trkpt>
      <trkpt lat="44.27557" lon="5.33896">
        <ele>848.1</ele>
        <time>2014-05-17T06:29:43Z</time>
      </trkpt>
      <trkpt lat="44.27535" lon="5.3396">
        <ele>851.3</ele>
        <time>2014-05-17T06:30:04Z</time>
      </trkpt>
      <trkpt lat="44.275" lon="5.34006">
        <ele>853.9</ele>
        <time>2014-05-17T06:30:32Z</time>
      </trkpt>
      <trkpt lat="44.27464" lon="5.34053">
        <ele>856.9</ele>
        <time>2014-05-17T06:31:10Z</time>
      </trkpt>
      <trkpt lat="44.27445" lon="5.34114">
        <ele>860.6</ele>
        <time>2014-05-17T06:31:48Z</time>
      </trkpt>
      <trkpt lat="44.27436" lon="5.34182">
        <ele>864.5</ele>
        <time>2014-05-17T06:32:26Z</time>
      </trkpt>
      <trkpt lat="44.27433" lon="5.3425">
        <ele>869.4</ele>
        <time>2014-05-17T06:33:03Z</time>
      </trkpt>
      <trkpt lat="44.27429" lon="5.34317">
        <ele>873.7</ele>
        <time>2014-05-17T06:33:41Z</time>
      </trkpt>
      <trkpt lat="44.27427" lon="5.34386">
        <ele>878.7</ele>
        <time>2014-05-17T06:34:19Z</time>
      </trkpt>
      <trkpt lat="44.27427" lon="5.34452">
        <ele>881.8</ele>
        <time>2014-05-17T06:34:55Z</time>
      </trkpt>
      <trkpt lat="44.27432" lon="5.34518">
        <ele>885.3</ele>
        <time>2014-05-17T06:35:32Z</time>
      </trkpt>
      <trkpt lat="44.27439" lon="5.34581">
        <ele>888.4</ele>
        <time>2014-05-17T06:36:06Z</time>
      </trkpt>
      <trkpt lat="44.2745" lon="5.34642">
        <ele>892.1</ele>
        <time>2014-05-17T06:36:44Z</time>
      </trkpt>
      <trkpt lat="44.27465" lon="5.34705">
        <ele>893.7</ele>
        <time>2014-05-17T06:37:20Z</time>
      </trkpt>
      <trkpt lat="44.27489" lon="5.34763">
        <ele>897.2</ele>
        <time>2014-05-17T06:37:47Z</time>
      </trkpt>
      <trkpt lat="44.27517" lon="5.34818">
        <ele>896.5</ele>
        <time>2014-05-17T06:38:08Z</time>
      </trkpt>
      <trkpt lat="44.27553" lon="5.3486">
        <ele>894.9</ele>
        <time>2014-05-17T06:38:18Z</time>
      </trkpt>
      <trkpt lat="44.27561" lon="5.34916">
        <ele>896.8</ele>
        <time>2014-05-17T06:38:35Z</time>
      </trkpt>
      <trkpt lat="44.27554" lon="5.34979">
        <ele>895.3</ele>
        <time>2014-05-17T06:38:55Z</time>
      </trkpt>
      <trkpt lat="44.27559" lon="5.35045">
        <ele>894.9</ele>
        <time>2014-05-17T06:39:06Z</time>
      </trkpt>
      <trkpt lat="44.27575" lon="5.35104">
        <ele>900.2</ele>
        <time>2014-05-17T06:39:34Z</time>
      </trkpt>
      <trkpt lat="44.2758" lon="5.3517">
        <ele>902.9</ele>
        <time>2014-05-17T06:40:08Z</time>
      </trkpt>
      <trkpt lat="44.27571" lon="5.35237">
        <ele>907.5</ele>
        <time>2014-05-17T06:40:44Z</time>
      </trkpt>
      <trkpt lat="44.27559" lon="5.353">
        <ele>910.2</ele>
        <time>2014-05-17T06:41:19Z</time>
      </trkpt>
      <trkpt lat="44.27558" lon="5.35364">
        <ele>914.6</ele>
        <time>2014-05-17T06:41:55Z</time>
      </trkpt>
      <trkpt lat="44.27549" lon="5.35431">
        <ele>919.3</ele>
        <time>2014-05-17T06:42:34Z</time>
      </trkpt>
      <trkpt lat="44.27554" lon="5.35498">
        <ele>924.6</ele>
        <time>2014-05-17T06:43:17Z</time>
      </trkpt>
      <trkpt lat="44.27559" lon="5.35565">
        <ele>931.7</ele>
        <time>2014-05-17T06:44:01Z</time>
      </trkpt>
      <trkpt lat="44.27555" lon="5.35635">
        <ele>936.7</ele>
        <time>2014-05-17T06:44:48Z</time>
      </trkpt>
      <trkpt lat="44.27538" lon="5.35701">
        <ele>940.5</ele>
        <time>2014-05-17T06:45:33Z</time>
      </trkpt>
      <trkpt lat="44.275" lon="5.35745">
        <ele>943.4</ele>
        <time>2014-05-17T06:46:05Z</time>
      </trkpt>
      <trkpt lat="44.27472" lon="5.35796">
        <ele>944.7</ele>
        <time>2014-05-17T06:52:45Z</time>
      </trkpt>
      <trkpt lat="44.27458" lon="5.3586">
        <ele>944.9</ele>
        <time>2014-05-17T06:53:07Z</time>
      </trkpt>
      <trkpt lat="44.27458" lon="5.35927">
        <ele>945.9</ele>
        <time>2014-05-17T06:53:23Z</time>
      </trkpt>
      <trkpt lat="44.27438" lon="5.3599">
        <ele>948.3</ele>
        <time>2014-05-17T06:53:47Z</time>
      </trkpt>
      <trkpt lat="44.27472" lon="5.35966">
        <ele>952</ele>
        <time>2014-05-17T06:54:23Z</time>
      </trkpt>
      <trkpt lat="44.27501" lon="5.35915">
        <ele>953.2</ele>
        <time>2014-05-17T06:54:51Z</time>
      </trkpt>
      <trkpt lat="44.27536" lon="5.3587">
        <ele>957.6</ele>
        <time>2014-05-17T06:55:21Z</time>
      </trkpt>
      <trkpt lat="44.27572" lon="5.35826">
        <ele>961.2</ele>
        <time>2014-05-17T06:55:51Z</time>
      </trkpt>
      <trkpt lat="44.27608" lon="5.3578">
        <ele>964.3</ele>
        <time>2014-05-17T06:56:20Z</time>
      </trkpt>
      <trkpt lat="44.27641" lon="5.35731">
        <ele>967.6</ele>
        <time>2014-05-17T06:56:50Z</time>
      </trkpt>
      <trkpt lat="44.27661" lon="5.35672">
        <ele>970.4</ele>
        <time>2014-05-17T06:57:20Z</time>
      </trkpt>
      <trkpt lat="44.27681" lon="5.3561">
        <ele>974.4</ele>
        <time>2014-05-17T06:57:51Z</time>
      </trkpt>
      <trkpt lat="44.27699" lon="5.35549">
        <ele>977.6</ele>
        <time>2014-05-17T06:58:20Z</time>
      </trkpt>
      <trkpt lat="44.27728" lon="5.35496">
        <ele>983.2</ele>
        <time>2014-05-17T06:58:56Z</time>
      </trkpt>
      <trkpt lat="44.27757" lon="5.35442">
        <ele>987.4</ele>
        <time>2014-05-17T06:59:32Z</time>
      </trkpt>
      <trkpt lat="44.27769" lon="5.35379">
        <ele>989.8</ele>
        <time>2014-05-17T07:00:08Z</time>
      </trkpt>
      <trkpt lat="44.27777" lon="5.35315">
        <ele>995.1</ele>
        <time>2014-05-17T07:00:46Z</time>
      </trkpt>
      <trkpt lat="44.27784" lon="5.35248">
        <ele>998.9</ele>
        <time>2014-05-17T07:01:25Z</time>
      </trkpt>
      <trkpt lat="44.27796" lon="5.35184">
        <ele>1002.2</ele>
        <time>2014-05-17T07:02:04Z</time>
      </trkpt>
      <trkpt lat="44.27805" lon="5.35117">
        <ele>1006.3</ele>
        <time>2014-05-17T07:02:41Z</time>
      </trkpt>
      <trkpt lat="44.27807" lon="5.3505">
        <ele>1010</ele>
        <time>2014-05-17T07:03:17Z</time>
      </trkpt>
      <trkpt lat="44.27807" lon="5.34983">
        <ele>1013.8</ele>
        <time>2014-05-17T07:03:53Z</time>
      </trkpt>
      <trkpt lat="44.27807" lon="5.34915">
        <ele>1015.8</ele>
        <time>2014-05-17T07:04:24Z</time>
      </trkpt>
      <trkpt lat="44.27815" lon="5.34851">
        <ele>1015.6</ele>
        <time>2014-05-17T07:04:42Z</time>
      </trkpt>
      <trkpt lat="44.27822" lon="5.34786">
        <ele>1014.2</ele>
        <time>2014-05-17T07:04:59Z</time>
      </trkpt>
      <trkpt lat="44.27829" lon="5.34721">
        <ele>1014.3</ele>
        <time>2014-05-17T07:05:14Z</time>
      </trkpt>
      <trkpt lat="44.27836" lon="5.34657">
        <ele>1013.6</ele>
        <time>2014-05-17T07:05:28Z</time>
      </trkpt>
      <trkpt lat="44.27838" lon="5.34594">
        <ele>1013.2</ele>
        <time>2014-05-17T07:05:42Z</time>
      </trkpt>
      <trkpt lat="44.27817" lon="5.34538">
        <ele>1012.4</ele>
        <time>2014-05-17T07:05:56Z</time>
      </trkpt>
      <trkpt lat="44.27782" lon="5.34491">
        <ele>1010.3</ele>
        <time>2014-05-17T07:06:08Z</time>
      </trkpt>
      <trkpt lat="44.27749" lon="5.34442">
        <ele>1008.8</ele>
        <time>2014-05-17T07:06:19Z</time>
      </trkpt>
      <trkpt lat="44.27751" lon="5.34417">
        <ele>1011.4</ele>
        <time>2014-05-17T07:06:42Z</time>
      </trkpt>
      <trkpt lat="44.27786" lon="5.34467">
        <ele>1016.1</ele>
        <time>2014-05-17T07:07:27Z</time>
      </trkpt>
      <trkpt lat="44.27827" lon="5.34504">
        <ele>1022.1</ele>
        <time>2014-05-17T07:08:11Z</time>
      </trkpt>
      <trkpt lat="44.27865" lon="5.34547">
        <ele>1029.3</ele>
        <time>2014-05-17T07:09:03Z</time>
      </trkpt>
      <trkpt lat="44.27891" lon="5.34608">
        <ele>1036</ele>
        <time>2014-05-17T07:09:52Z</time>
      </trkpt>
      <trkpt lat="44.27894" lon="5.34674">
        <ele>1041</ele>
        <time>2014-05-17T07:10:36Z</time>
      </trkpt>
      <trkpt lat="44.27895" lon="5.34738">
        <ele>1046.3</ele>
        <time>2014-05-17T07:11:40Z</time>
      </trkpt>
      <trkpt lat="44.27899" lon="5.34804">
        <ele>1051.6</ele>
        <time>2014-05-17T07:12:33Z</time>
      </trkpt>
      <trkpt lat="44.27904" lon="5.34869">
        <ele>1056.2</ele>
        <time>2014-05-17T07:13:50Z</time>
      </trkpt>
      <trkpt lat="44.27912" lon="5.34934">
        <ele>1061.1</ele>
        <time>2014-05-17T07:14:34Z</time>
      </trkpt>
      <trkpt lat="44.27928" lon="5.34995">
        <ele>1065.2</ele>
        <time>2014-05-17T07:15:15Z</time>
      </trkpt>
      <trkpt lat="44.27949" lon="5.35055">
        <ele>1069.1</ele>
        <time>2014-05-17T07:15:57Z</time>
      </trkpt>
      <trkpt lat="44.27972" lon="5.35116">
        <ele>1073.6</ele>
        <time>2014-05-17T07:16:40Z</time>
      </trkpt>
      <trkpt lat="44.2799" lon="5.35173">
        <ele>1069.4</ele>
        <time>2014-05-17T07:23:49Z</time>
      </trkpt>
      <trkpt lat="44.27983" lon="5.35238">
        <ele>1064.8</ele>
        <time>2014-05-17T07:24:07Z</time>
      </trkpt>
      <trkpt lat="44.27985" lon="5.35306">
        <ele>1062.7</ele>
        <time>2014-05-17T07:24:16Z</time>
      </trkpt>
      <trkpt lat="44.27992" lon="5.35369">
        <ele>1056.9</ele>
        <time>2014-05-17T07:24:25Z</time>
      </trkpt>
      <trkpt lat="44.2799" lon="5.35432">
        <ele>1055.1</ele>
        <time>2014-05-17T07:24:52Z</time>
      </trkpt>
      <trkpt lat="44.27994" lon="5.35496">
        <ele>1053.7</ele>
        <time>2014-05-17T07:25:20Z</time>
      </trkpt>
      <trkpt lat="44.27983" lon="5.35561">
        <ele>1059</ele>
        <time>2014-05-17T07:25:51Z</time>
      </trkpt>
      <trkpt lat="44.2797" lon="5.35626">
        <ele>1068.7</ele>
        <time>2014-05-17T07:26:30Z</time>
      </trkpt>
      <trkpt lat="44.27959" lon="5.35692">
        <ele>1070.4</ele>
        <time>2014-05-17T07:27:04Z</time>
      </trkpt>
      <trkpt lat="44.27943" lon="5.35752">
        <ele>1068.7</ele>
        <time>2014-05-17T07:27:17Z</time>
      </trkpt>
      <trkpt lat="44.27925" lon="5.35814">
        <ele>1063.9</ele>
        <time>2014-05-17T07:27:31Z</time>
      </trkpt>
      <trkpt lat="44.27906" lon="5.35873">
        <ele>1060.8</ele>
        <time>2014-05-17T07:27:45Z</time>
      </trkpt>
      <trkpt lat="44.27879" lon="5.35923">
        <ele>1055</ele>
        <time>2014-05-17T07:27:57Z</time>
      </trkpt>
      <trkpt lat="44.27846" lon="5.35971">
        <ele>1050.1</ele>
        <time>2014-05-17T07:28:05Z</time>
      </trkpt>
      <trkpt lat="44.27807" lon="5.3601">
        <ele>1046.6</ele>
        <time>2014-05-17T07:28:14Z</time>
      </trkpt>
      <trkpt lat="44.27784" lon="5.36068">
        <ele>1042.8</ele>
        <time>2014-05-17T07:28:22Z</time>
      </trkpt>
      <trkpt lat="44.27758" lon="5.36124">
        <ele>1039.4</ele>
        <time>2014-05-17T07:28:30Z</time>
      </trkpt>
      <trkpt lat="44.27744" lon="5.36184">
        <ele>1036.3</ele>
        <time>2014-05-17T07:28:39Z</time>
      </trkpt>
      <trkpt lat="44.27764" lon="5.36229">
        <ele>1035</ele>
        <time>2014-05-17T07:29:00Z</time>
      </trkpt>
      <trkpt lat="44.27813" lon="5.36239">
        <ele>1034</ele>
        <time>2014-05-17T07:29:16Z</time>
      </trkpt>
      <trkpt lat="44.27853" lon="5.36278">
        <ele>1039.7</ele>
        <time>2014-05-17T07:29:43Z</time>
      </trkpt>
      <trkpt lat="44.27885" lon="5.36329">
        <ele>1037.6</ele>
        <time>2014-05-17T07:30:13Z</time>
      </trkpt>
      <trkpt lat="44.279" lon="5.36404">
        <ele>1033.6</ele>
        <time>2014-05-17T07:30:33Z</time>
      </trkpt>
      <trkpt lat="44.27917" lon="5.36471">
        <ele>1027</ele>
        <time>2014-05-17T07:30:47Z</time>
      </trkpt>
      <trkpt lat="44.27946" lon="5.36537">
        <ele>1020.8</ele>
        <time>2014-05-17T07:31:01Z</time>
      </trkpt>
      <trkpt lat="44.27979" lon="5.3661">
        <ele>1017.7</ele>
        <time>2014-05-17T07:31:23Z</time>
      </trkpt>
      <trkpt lat="44.27997" lon="5.36692">
        <ele>1020.4</ele>
        <time>2014-05-17T07:31:47Z</time>
      </trkpt>
      <trkpt lat="44.28016" lon="5.36759">
        <ele>1022.6</ele>
        <time>2014-05-17T07:31:57Z</time>
      </trkpt>
      <trkpt lat="44.28057" lon="5.36816">
        <ele>1018.5</ele>
        <time>2014-05-17T07:32:11Z</time>
      </trkpt>
      <trkpt lat="44.28069" lon="5.36893">
        <ele>1014.7</ele>
        <time>2014-05-17T07:32:25Z</time>
      </trkpt>
      <trkpt lat="44.28051" lon="5.36957">
        <ele>1011.5</ele>
        <time>2014-05-17T07:32:37Z</time>
      </trkpt>
      <trkpt lat="44.28028" lon="5.37026">
        <ele>1008</ele>
        <time>2014-05-17T07:32:55Z</time>
      </trkpt>
      <trkpt lat="44.28004" lon="5.37101">
        <ele>1006.5</ele>
        <time>2014-05-17T07:33:09Z</time>
      </trkpt>
      <trkpt lat="44.27983" lon="5.3717">
        <ele>1005.8</ele>
        <time>2014-05-17T07:33:23Z</time>
      </trkpt>
      <trkpt lat="44.27951" lon="5.37249">
        <ele>1005.9</ele>
        <time>2014-05-17T07:33:42Z</time>
      </trkpt>
      <trkpt lat="44.27924" lon="5.37326">
        <ele>1004.2</ele>
        <time>2014-05-17T07:34:02Z</time>
      </trkpt>
      <trkpt lat="44.27877" lon="5.37367">
        <ele>1008.8</ele>
        <time>2014-05-17T07:36:04Z</time>
      </trkpt>
      <trkpt lat="44.27829" lon="5.37405">
        <ele>1014.1</ele>
        <time>2014-05-17T07:36:45Z</time>
      </trkpt>
      <trkpt lat="44.27787" lon="5.37462">
        <ele>1013.3</ele>
        <time>2014-05-17T07:37:15Z</time>
      </trkpt>
      <trkpt lat="44.27748" lon="5.37517">
        <ele>1011.9</ele>
        <time>2014-05-17T07:37:39Z</time>
      </trkpt>
      <trkpt lat="44.27701" lon="5.37559">
        <ele>1015.7</ele>
        <time>2014-05-17T07:38:07Z</time>
      </trkpt>
      <trkpt lat="44.27641" lon="5.37591">
        <ele>1026.3</ele>
        <time>2014-05-17T07:39:01Z</time>
      </trkpt>
      <trkpt lat="44.27596" lon="5.37621">
        <ele>1031.9</ele>
        <time>2014-05-17T07:40:17Z</time>
      </trkpt>
      <trkpt lat="44.27542" lon="5.37659">
        <ele>1033.9</ele>
        <time>2014-05-17T07:41:31Z</time>
      </trkpt>
      <trkpt lat="44.27502" lon="5.37643">
        <ele>1040.9</ele>
        <time>2014-05-17T07:42:22Z</time>
      </trkpt>
      <trkpt lat="44.27459" lon="5.37613">
        <ele>1046.9</ele>
        <time>2014-05-17T07:43:33Z</time>
      </trkpt>
      <trkpt lat="44.27411" lon="5.3759">
        <ele>1048.9</ele>
        <time>2014-05-17T07:44:27Z</time>
      </trkpt>
      <trkpt lat="44.27365" lon="5.37576">
        <ele>1050.4</ele>
        <time>2014-05-17T07:44:43Z</time>
      </trkpt>
      <trkpt lat="44.27317" lon="5.37562">
        <ele>1055.7</ele>
        <time>2014-05-17T07:45:13Z</time>
      </trkpt>
      <trkpt lat="44.2727" lon="5.37558">
        <ele>1060</ele>
        <time>2014-05-17T07:45:45Z</time>
      </trkpt>
      <trkpt lat="44.27237" lon="5.376">
        <ele>1064.4</ele>
        <time>2014-05-17T07:46:44Z</time>
      </trkpt>
      <trkpt lat="44.27226" lon="5.37661">
        <ele>1075.7</ele>
        <time>2014-05-17T07:48:03Z</time>
      </trkpt>
      <trkpt lat="44.27203" lon="5.37712">
        <ele>1079.9</ele>
        <time>2014-05-17T07:49:21Z</time>
      </trkpt>
      <trkpt lat="44.27166" lon="5.37741">
        <ele>1080.6</ele>
        <time>2014-05-17T07:51:01Z</time>
      </trkpt>
      <trkpt lat="44.27118" lon="5.37752">
        <ele>1077.4</ele>
        <time>2014-05-17T07:51:21Z</time>
      </trkpt>
      <trkpt lat="44.27089" lon="5.37802">
        <ele>1080.2</ele>
        <time>2014-05-17T07:51:58Z</time>
      </trkpt>
      <trkpt lat="44.27052" lon="5.37851">
        <ele>1080.2</ele>
        <time>2014-05-17T07:52:19Z</time>
      </trkpt>
      <trkpt lat="44.27014" lon="5.37894">
        <ele>1077.5</ele>
        <time>2014-05-17T07:52:37Z</time>
      </trkpt>
      <trkpt lat="44.26973" lon="5.37935">
        <ele>1071.9</ele>
        <time>2014-05-17T07:52:53Z</time>
      </trkpt>
      <trkpt lat="44.26931" lon="5.3797">
        <ele>1066</ele>
        <time>2014-05-17T07:53:04Z</time>
      </trkpt>
      <trkpt lat="44.26889" lon="5.38005">
        <ele>1060.5</ele>
        <time>2014-05-17T07:53:15Z</time>
      </trkpt>
      <trkpt lat="44.26845" lon="5.38021">
        <ele>1049.5</ele>
        <time>2014-05-17T07:53:27Z</time>
      </trkpt>
      <trkpt lat="44.26802" lon="5.38055">
        <ele>1045.4</ele>
        <time>2014-05-17T07:53:38Z</time>
      </trkpt>
      <trkpt lat="44.26761" lon="5.38042">
        <ele>1038.1</ele>
        <time>2014-05-17T07:53:51Z</time>
      </trkpt>
      <trkpt lat="44.26718" lon="5.38031">
        <ele>1035.2</ele>
        <time>2014-05-17T07:54:00Z</time>
      </trkpt>
      <trkpt lat="44.26673" lon="5.38027">
        <ele>1035.7</ele>
        <time>2014-05-17T07:54:12Z</time>
      </trkpt>
      <trkpt lat="44.26626" lon="5.38002">
        <ele>1030.6</ele>
        <time>2014-05-17T07:54:22Z</time>
      </trkpt>
      <trkpt lat="44.26576" lon="5.38008">
        <ele>1028.4</ele>
        <time>2014-05-17T07:54:46Z</time>
      </trkpt>
      <trkpt lat="44.26535" lon="5.38074">
        <ele>1032.3</ele>
        <time>2014-05-17T07:55:16Z</time>
      </trkpt>
      <trkpt lat="44.26505" lon="5.3813">
        <ele>1032</ele>
        <time>2014-05-17T07:55:30Z</time>
      </trkpt>
      <trkpt lat="44.26469" lon="5.38175">
        <ele>1028.7</ele>
        <time>2014-05-17T07:55:39Z</time>
      </trkpt>
      <trkpt lat="44.26433" lon="5.38225">
        <ele>1025.5</ele>
        <time>2014-05-17T07:55:59Z</time>
      </trkpt>
      <trkpt lat="44.2642" lon="5.38288">
        <ele>1025</ele>
        <time>2014-05-17T07:56:20Z</time>
      </trkpt>
      <trkpt lat="44.26396" lon="5.38334">
        <ele>1026.2</ele>
        <time>2014-05-17T07:56:43Z</time>
      </trkpt>
      <trkpt lat="44.26352" lon="5.38358">
        <ele>1029</ele>
        <time>2014-05-17T07:57:11Z</time>
      </trkpt>
      <trkpt lat="44.26309" lon="5.38392">
        <ele>1036.6</ele>
        <time>2014-05-17T07:57:39Z</time>
      </trkpt>
      <trkpt lat="44.26268" lon="5.38413">
        <ele>1038.7</ele>
        <time>2014-05-17T07:58:03Z</time>
      </trkpt>
      <trkpt lat="44.26224" lon="5.38437">
        <ele>1041.1</ele>
        <time>2014-05-17T07:58:19Z</time>
      </trkpt>
      <trkpt lat="44.26185" lon="5.38467">
        <ele>1041.9</ele>
        <time>2014-05-17T07:58:42Z</time>
      </trkpt>
      <trkpt lat="44.26166" lon="5.38525">
        <ele>1041.8</ele>
        <time>2014-05-17T07:58:58Z</time>
      </trkpt>
      <trkpt lat="44.26143" lon="5.38579">
        <ele>1042.8</ele>
        <time>2014-05-17T07:59:13Z</time>
      </trkpt>
      <trkpt lat="44.2611" lon="5.38624">
        <ele>1045.6</ele>
        <time>2014-05-17T07:59:37Z</time>
      </trkpt>
      <trkpt lat="44.26083" lon="5.38675">
        <ele>1045.2</ele>
        <time>2014-05-17T07:59:57Z</time>
      </trkpt>
      <trkpt lat="44.26059" lon="5.38712">
        <ele>1047.3</ele>
        <time>2014-05-17T08:00:14Z</time>
      </trkpt>
      <trkpt lat="44.26017" lon="5.38695">
        <ele>1052.9</ele>
        <time>2014-05-17T08:00:51Z</time>
      </trkpt>
      <trkpt lat="44.25977" lon="5.38731">
        <ele>1058.4</ele>
        <time>2014-05-17T08:01:20Z</time>
      </trkpt>
      <trkpt lat="44.25934" lon="5.38761">
        <ele>1062.5</ele>
        <time>2014-05-17T08:01:56Z</time>
      </trkpt>
      <trkpt lat="44.25915" lon="5.38794">
        <ele>1069.9</ele>
        <time>2014-05-17T08:05:21Z</time>
      </trkpt>
      <trkpt lat="44.25958" lon="5.38782">
        <ele>1071.9</ele>
        <time>2014-05-17T08:06:33Z</time>
      </trkpt>
      <trkpt lat="44.26001" lon="5.38802">
        <ele>1078</ele>
        <time>2014-05-17T08:07:42Z</time>
      </trkpt>
      <trkpt lat="44.2604" lon="5.38838">
        <ele>1082.2</ele>
        <time>2014-05-17T08:08:20Z</time>
      </trkpt>
      <trkpt lat="44.26085" lon="5.3884">
        <ele>1084.2</ele>
        <time>2014-05-17T08:09:00Z</time>
      </trkpt>
      <trkpt lat="44.26131" lon="5.38821">
        <ele>1089.9</ele>
        <time>2014-05-17T08:09:45Z</time>
      </trkpt>
      <trkpt lat="44.26173" lon="5.38791">
        <ele>1095.3</ele>
        <time>2014-05-17T08:10:34Z</time>
      </trkpt>
      <trkpt lat="44.26171" lon="5.38833">
        <ele>1103.9</ele>
        <time>2014-05-17T08:11:20Z</time>
      </trkpt>
      <trkpt lat="44.26138" lon="5.38879">
        <ele>1106.2</ele>
        <time>2014-05-17T08:12:09Z</time>
      </trkpt>
      <trkpt lat="44.26103" lon="5.38932">
        <ele>1110.9</ele>
        <time>2014-05-17T08:12:56Z</time>
      </trkpt>
      <trkpt lat="44.26087" lon="5.38974">
        <ele>1115.9</ele>
        <time>2014-05-17T08:13:53Z</time>
      </trkpt>
      <trkpt lat="44.26133" lon="5.38935">
        <ele>1120.1</ele>
        <time>2014-05-17T08:14:57Z</time>
      </trkpt>
      <trkpt lat="44.26189" lon="5.38905">
        <ele>1128.7</ele>
        <time>2014-05-17T08:16:02Z</time>
      </trkpt>
      <trkpt lat="44.26245" lon="5.38883">
        <ele>1135.2</ele>
        <time>2014-05-17T08:17:42Z</time>
      </trkpt>
      <trkpt lat="44.26279" lon="5.38874">
        <ele>1139.5</ele>
        <time>2014-05-17T08:19:09Z</time>
      </trkpt>
      <trkpt lat="44.26239" lon="5.3893">
        <ele>1149.8</ele>
        <time>2014-05-17T08:20:13Z</time>
      </trkpt>
      <trkpt lat="44.262" lon="5.38979">
        <ele>1156.7</ele>
        <time>2014-05-17T08:21:14Z</time>
      </trkpt>
      <trkpt lat="44.26164" lon="5.39034">
        <ele>1161.2</ele>
        <time>2014-05-17T08:22:24Z</time>
      </trkpt>
      <trkpt lat="44.26149" lon="5.39093">
        <ele>1166.7</ele>
        <time>2014-05-17T08:26:44Z</time>
      </trkpt>
      <trkpt lat="44.26124" lon="5.39161">
        <ele>1165.8</ele>
        <time>2014-05-17T08:27:56Z</time>
      </trkpt>
      <trkpt lat="44.26131" lon="5.39231">
        <ele>1176.3</ele>
        <time>2014-05-17T08:29:41Z</time>
      </trkpt>
      <trkpt lat="44.26135" lon="5.39284">
        <ele>1183.1</ele>
        <time>2014-05-17T08:31:23Z</time>
      </trkpt>
      <trkpt lat="44.26123" lon="5.39346">
        <ele>1193</ele>
        <time>2014-05-17T08:32:40Z</time>
      </trkpt>
      <trkpt lat="44.26105" lon="5.39403">
        <ele>1199.1</ele>
        <time>2014-05-17T08:34:07Z</time>
      </trkpt>
      <trkpt lat="44.26089" lon="5.39468">
        <ele>1204.5</ele>
        <time>2014-05-17T08:36:57Z</time>
      </trkpt>
      <trkpt lat="44.26065" lon="5.39528">
        <ele>1207.9</ele>
        <time>2014-05-17T08:37:25Z</time>
      </trkpt>
      <trkpt lat="44.26037" lon="5.39593">
        <ele>1213.9</ele>
        <time>2014-05-17T08:38:09Z</time>
      </trkpt>
      <trkpt lat="44.26006" lon="5.39653">
        <ele>1217.4</ele>
        <time>2014-05-17T08:39:19Z</time>
      </trkpt>
      <trkpt lat="44.26" lon="5.39718">
        <ele>1227.3</ele>
        <time>2014-05-17T08:40:22Z</time>
      </trkpt>
      <trkpt lat="44.26012" lon="5.39769">
        <ele>1227.4</ele>
        <time>2014-05-17T08:57:23Z</time>
      </trkpt>
      <trkpt lat="44.26038" lon="5.39825">
        <ele>1217.9</ele>
        <time>2014-05-17T08:57:37Z</time>
      </trkpt>
      <trkpt lat="44.26056" lon="5.39885">
        <ele>1203.8</ele>
        <time>2014-05-17T08:57:51Z</time>
      </trkpt>
      <trkpt lat="44.26053" lon="5.39949">
        <ele>1193.2</ele>
        <time>2014-05-17T08:58:05Z</time>
      </trkpt>
      <trkpt lat="44.26064" lon="5.40012">
        <ele>1177.2</ele>
        <time>2014-05-17T08:58:23Z</time>
      </trkpt>
      <trkpt lat="44.26078" lon="5.4008">
        <ele>1160.2</ele>
        <time>2014-05-17T08:58:45Z</time>
      </trkpt>
      <trkpt lat="44.26084" lon="5.40148">
        <ele>1146.5</ele>
        <time>2014-05-17T08:59:15Z</time>
      </trkpt>
      <trkpt lat="44.26092" lon="5.40215">
        <ele>1136.9</ele>
        <time>2014-05-17T08:59:30Z</time>
      </trkpt>
      <trkpt lat="44.26114" lon="5.40275">
        <ele>1128.8</ele>
        <time>2014-05-17T08:59:41Z</time>
      </trkpt>
      <trkpt lat="44.26145" lon="5.40324">
        <ele>1120</ele>
        <time>2014-05-17T09:00:00Z</time>
      </trkpt>
      <trkpt lat="44.26182" lon="5.40354">
        <ele>1109.6</ele>
        <time>2014-05-17T09:00:12Z</time>
      </trkpt>
      <trkpt lat="44.26228" lon="5.40351">
        <ele>1100.8</ele>
        <time>2014-05-17T09:00:34Z</time>
      </trkpt>
      <trkpt lat="44.26269" lon="5.40384">
        <ele>1087.1</ele>
        <time>2014-05-17T09:01:05Z</time>
      </trkpt>
      <trkpt lat="44.26317" lon="5.40363">
        <ele>1077.6</ele>
        <time>2014-05-17T09:01:26Z</time>
      </trkpt>
      <trkpt lat="44.26363" lon="5.40343">
        <ele>1063.8</ele>
        <time>2014-05-17T09:02:09Z</time>
      </trkpt>
      <trkpt lat="44.26406" lon="5.40313">
        <ele>1047.5</ele>
        <time>2014-05-17T09:03:11Z</time>
      </trkpt>
      <trkpt lat="44.2644" lon="5.40287">
        <ele>1032.8</ele>
        <time>2014-05-17T09:03:54Z</time>
      </trkpt>
      <trkpt lat="44.26467" lon="5.4034">
        <ele>1021.7</ele>
        <time>2014-05-17T09:04:15Z</time>
      </trkpt>
      <trkpt lat="44.26495" lon="5.40394">
        <ele>1012.7</ele>
        <time>2014-05-17T09:05:27Z</time>
      </trkpt>
      <trkpt lat="44.26525" lon="5.40443">
        <ele>1009.3</ele>
        <time>2014-05-17T09:05:36Z</time>
      </trkpt>
      <trkpt lat="44.26536" lon="5.40507">
        <ele>1004.1</ele>
        <time>2014-05-17T09:05:50Z</time>
      </trkpt>
      <trkpt lat="44.26547" lon="5.40573">
        <ele>995.1</ele>
        <time>2014-05-17T09:05:59Z</time>
      </trkpt>
      <trkpt lat="44.26545" lon="5.40633">
        <ele>983.8</ele>
        <time>2014-05-17T09:06:27Z</time>
      </trkpt>
      <trkpt lat="44.26525" lon="5.40695">
        <ele>969.1</ele>
        <time>2014-05-17T09:06:46Z</time>
      </trkpt>
      <trkpt lat="44.26546" lon="5.40763">
        <ele>948.4</ele>
        <time>2014-05-17T09:07:11Z</time>
      </trkpt>
      <trkpt lat="44.2654" lon="5.40825">
        <ele>935</ele>
        <time>2014-05-17T09:08:02Z</time>
      </trkpt>
      <trkpt lat="44.26553" lon="5.40888">
        <ele>920.6</ele>
        <time>2014-05-17T09:09:28Z</time>
      </trkpt>
      <trkpt lat="44.2657" lon="5.40928">
        <ele>911.9</ele>
        <time>2014-05-17T09:10:04Z</time>
      </trkpt>
      <trkpt lat="44.26605" lon="5.40889">
        <ele>912.9</ele>
        <time>2014-05-17T09:14:39Z</time>
      </trkpt>
      <trkpt lat="44.26638" lon="5.40841">
        <ele>917</ele>
        <time>2014-05-17T09:15:06Z</time>
      </trkpt>
      <trkpt lat="44.26682" lon="5.4087">
        <ele>914</ele>
        <time>2014-05-17T09:15:18Z</time>
      </trkpt>
      <trkpt lat="44.26722" lon="5.40904">
        <ele>912.8</ele>
        <time>2014-05-17T09:15:39Z</time>
      </trkpt>
      <trkpt lat="44.26751" lon="5.40889">
        <ele>911.9</ele>
        <time>2014-05-17T09:16:05Z</time>
      </trkpt>
      <trkpt lat="44.26778" lon="5.40836">
        <ele>910.7</ele>
        <time>2014-05-17T09:16:29Z</time>
      </trkpt>
      <trkpt lat="44.268" lon="5.40778">
        <ele>912.1</ele>
        <time>2014-05-17T09:16:57Z</time>
      </trkpt>
      <trkpt lat="44.26825" lon="5.40722">
        <ele>913.2</ele>
        <time>2014-05-17T09:17:06Z</time>
      </trkpt>
      <trkpt lat="44.26844" lon="5.40683">
        <ele>914</ele>
        <time>2014-05-17T09:17:33Z</time>
      </trkpt>
      <trkpt lat="44.26879" lon="5.40644">
        <ele>913</ele>
        <time>2014-05-17T09:17:47Z</time>
      </trkpt>
      <trkpt lat="44.269" lon="5.40583">
        <ele>918.4</ele>
        <time>2014-05-17T09:18:30Z</time>
      </trkpt>
      <trkpt lat="44.2695" lon="5.40589">
        <ele>916.3</ele>
        <time>2014-05-17T09:18:57Z</time>
      </trkpt>
      <trkpt lat="44.26997" lon="5.40594">
        <ele>918.4</ele>
        <time>2014-05-17T09:19:10Z</time>
      </trkpt>
      <trkpt lat="44.27042" lon="5.40573">
        <ele>926.5</ele>
        <time>2014-05-17T09:19:45Z</time>
      </trkpt>
      <trkpt lat="44.27088" lon="5.406">
        <ele>925.3</ele>
        <time>2014-05-17T09:20:13Z</time>
      </trkpt>
      <trkpt lat="44.27111" lon="5.40648">
        <ele>919.7</ele>
        <time>2014-05-17T09:21:43Z</time>
      </trkpt>
      <trkpt lat="44.27121" lon="5.40702">
        <ele>909.7</ele>
        <time>2014-05-17T09:22:12Z</time>
      </trkpt>
      <trkpt lat="44.27162" lon="5.4069">
        <ele>907.4</ele>
        <time>2014-05-17T09:23:32Z</time>
      </trkpt>
      <trkpt lat="44.27204" lon="5.40714">
        <ele>893.1</ele>
        <time>2014-05-17T09:23:44Z</time>
      </trkpt>
      <trkpt lat="44.27235" lon="5.40765">
        <ele>877.3</ele>
        <time>2014-05-17T09:24:01Z</time>
      </trkpt>
      <trkpt lat="44.27269" lon="5.40796">
        <ele>864.4</ele>
        <time>2014-05-17T09:24:42Z</time>
      </trkpt>
      <trkpt lat="44.27302" lon="5.40797">
        <ele>855.6</ele>
        <time>2014-05-17T09:25:02Z</time>
      </trkpt>
      <trkpt lat="44.27334" lon="5.40774">
        <ele>848.1</ele>
        <time>2014-05-17T09:25:43Z</time>
      </trkpt>
      <trkpt lat="44.27378" lon="5.4078">
        <ele>838.6</ele>
        <time>2014-05-17T09:26:25Z</time>
      </trkpt>
      <trkpt lat="44.27421" lon="5.40796">
        <ele>831.4</ele>
        <time>2014-05-17T09:26:37Z</time>
      </trkpt>
      <trkpt lat="44.27455" lon="5.40791">
        <ele>821.1</ele>
        <time>2014-05-17T09:27:06Z</time>
      </trkpt>
      <trkpt lat="44.27465" lon="5.40848">
        <ele>816.6</ele>
        <time>2014-05-17T09:27:44Z</time>
      </trkpt>
      <trkpt lat="44.27473" lon="5.40906">
        <ele>814</ele>
        <time>2014-05-17T09:28:11Z</time>
      </trkpt>
      <trkpt lat="44.27498" lon="5.40951">
        <ele>809.5</ele>
        <time>2014-05-17T09:28:25Z</time>
      </trkpt>
      <trkpt lat="44.27526" lon="5.40997">
        <ele>817.2</ele>
        <time>2014-05-17T09:29:26Z</time>
      </trkpt>
      <trkpt lat="44.27572" lon="5.40994">
        <ele>809.5</ele>
        <time>2014-05-17T09:29:36Z</time>
      </trkpt>
      <trkpt lat="44.27623" lon="5.40988">
        <ele>798</ele>
        <time>2014-05-17T09:29:46Z</time>
      </trkpt>
      <trkpt lat="44.27665" lon="5.41014">
        <ele>788.8</ele>
        <time>2014-05-17T09:29:55Z</time>
      </trkpt>
      <trkpt lat="44.27694" lon="5.41059">
        <ele>778.3</ele>
        <time>2014-05-17T09:30:09Z</time>
      </trkpt>
      <trkpt lat="44.27714" lon="5.41116">
        <ele>764.2</ele>
        <time>2014-05-17T09:30:25Z</time>
      </trkpt>
      <trkpt lat="44.27723" lon="5.41178">
        <ele>754.1</ele>
        <time>2014-05-17T09:32:16Z</time>
      </trkpt>
      <trkpt lat="44.27713" lon="5.41246">
        <ele>751.6</ele>
        <time>2014-05-17T09:32:37Z</time>
      </trkpt>
      <trkpt lat="44.27713" lon="5.41312">
        <ele>741.5</ele>
        <time>2014-05-17T09:32:52Z</time>
      </trkpt>
      <trkpt lat="44.27726" lon="5.41375">
        <ele>732.3</ele>
        <time>2014-05-17T09:33:08Z</time>
      </trkpt>
      <trkpt lat="44.27724" lon="5.41439">
        <ele>730.7</ele>
        <time>2014-05-17T09:33:20Z</time>
      </trkpt>
      <trkpt lat="44.27722" lon="5.41506">
        <ele>728.2</ele>
        <time>2014-05-17T09:33:33Z</time>
      </trkpt>
      <trkpt lat="44.27734" lon="5.41568">
        <ele>718.8</ele>
        <time>2014-05-17T09:33:44Z</time>
      </trkpt>
      <trkpt lat="44.27757" lon="5.41628">
        <ele>709.4</ele>
        <time>2014-05-17T09:33:57Z</time>
      </trkpt>
      <trkpt lat="44.27798" lon="5.41679">
        <ele>692.6</ele>
        <time>2014-05-17T09:34:13Z</time>
      </trkpt>
      <trkpt lat="44.27843" lon="5.4172">
        <ele>678.1</ele>
        <time>2014-05-17T09:34:29Z</time>
      </trkpt>
      <trkpt lat="44.27889" lon="5.417">
        <ele>655.6</ele>
        <time>2014-05-17T09:35:37Z</time>
      </trkpt>
      <trkpt lat="44.27928" lon="5.4174">
        <ele>645</ele>
        <time>2014-05-17T09:35:51Z</time>
      </trkpt>
      <trkpt lat="44.2795" lon="5.41781">
        <ele>637</ele>
        <time>2014-05-17T09:41:26Z</time>
      </trkpt>
      <trkpt lat="44.27945" lon="5.41849">
        <ele>636.7</ele>
        <time>2014-05-17T09:41:36Z</time>
      </trkpt>
      <trkpt lat="44.27924" lon="5.41909">
        <ele>637.2</ele>
        <time>2014-05-17T09:41:44Z</time>
      </trkpt>
      <trkpt lat="44.2793" lon="5.41935">
        <ele>633</ele>
        <time>2014-05-17T09:41:59Z</time>
      </trkpt>
      <trkpt lat="44.27978" lon="5.41928">
        <ele>624.9</ele>
        <time>2014-05-17T09:42:11Z</time>
      </trkpt>
      <trkpt lat="44.28021" lon="5.41927">
        <ele>624.3</ele>
        <time>2014-05-17T09:42:26Z</time>
      </trkpt>
      <trkpt lat="44.28071" lon="5.41936">
        <ele>622.4</ele>
        <time>2014-05-17T09:42:33Z</time>
      </trkpt>
      <trkpt lat="44.28123" lon="5.41953">
        <ele>617.4</ele>
        <time>2014-05-17T09:42:39Z</time>
      </trkpt>
      <trkpt lat="44.28171" lon="5.4197">
        <ele>606.2</ele>
        <time>2014-05-17T09:42:44Z</time>
      </trkpt>
      <trkpt lat="44.28218" lon="5.41979">
        <ele>611.2</ele>
        <time>2014-05-17T09:42:51Z</time>
      </trkpt>
      <trkpt lat="44.28265" lon="5.41979">
        <ele>618.2</ele>
        <time>2014-05-17T09:43:09Z</time>
      </trkpt>
      <trkpt lat="44.2831" lon="5.41982">
        <ele>621.4</ele>
        <time>2014-05-17T09:43:26Z</time>
      </trkpt>
      <trkpt lat="44.28358" lon="5.41985">
        <ele>623.9</ele>
        <time>2014-05-17T09:43:42Z</time>
      </trkpt>
      <trkpt lat="44.28406" lon="5.4198">
        <ele>624.3</ele>
        <time>2014-05-17T09:43:57Z</time>
      </trkpt>
      <trkpt lat="44.2845" lon="5.41959">
        <ele>624.9</ele>
        <time>2014-05-17T09:44:11Z</time>
      </trkpt>
      <trkpt lat="44.28486" lon="5.4192">
        <ele>625.8</ele>
        <time>2014-05-17T09:44:25Z</time>
      </trkpt>
      <trkpt lat="44.28513" lon="5.41869">
        <ele>625.5</ele>
        <time>2014-05-17T09:44:40Z</time>
      </trkpt>
      <trkpt lat="44.28535" lon="5.41811">
        <ele>623.5</ele>
        <time>2014-05-17T09:44:55Z</time>
      </trkpt>
      <trkpt lat="44.28572" lon="5.41773">
        <ele>625.6</ele>
        <time>2014-05-17T09:45:10Z</time>
      </trkpt>
      <trkpt lat="44.28618" lon="5.41759">
        <ele>628.7</ele>
        <time>2014-05-17T09:45:26Z</time>
      </trkpt>
      <trkpt lat="44.28662" lon="5.41738">
        <ele>631.7</ele>
        <time>2014-05-17T09:45:42Z</time>
      </trkpt>
      <trkpt lat="44.28701" lon="5.41702">
        <ele>630.6</ele>
        <time>2014-05-17T09:46:00Z</time>
      </trkpt>
      <trkpt lat="44.28739" lon="5.41664">
        <ele>631.7</ele>
        <time>2014-05-17T09:46:19Z</time>
      </trkpt>
      <trkpt lat="44.28742" lon="5.4167">
        <ele>634.4</ele>
        <time>2014-05-17T09:46:44Z</time>
      </trkpt>
      <trkpt lat="44.28712" lon="5.41725">
        <ele>640.8</ele>
        <time>2014-05-17T09:47:17Z</time>
      </trkpt>
      <trkpt lat="44.2873" lon="5.41718">
        <ele>643.4</ele>
        <time>2014-05-17T09:47:53Z</time>
      </trkpt>
      <trkpt lat="44.28771" lon="5.41684">
        <ele>643.4</ele>
        <time>2014-05-17T09:48:29Z</time>
      </trkpt>
      <trkpt lat="44.2881" lon="5.41654">
        <ele>642.1</ele>
        <time>2014-05-17T09:49:21Z</time>
      </trkpt>
      <trkpt lat="44.28825" lon="5.41593">
        <ele>635.8</ele>
        <time>2014-05-17T09:55:17Z</time>
      </trkpt>
      <trkpt lat="44.28862" lon="5.41571">
        <ele>636.5</ele>
        <time>2014-05-17T09:55:36Z</time>
      </trkpt>
      <trkpt lat="44.28885" lon="5.41592">
        <ele>634.2</ele>
        <time>2014-05-17T09:56:01Z</time>
      </trkpt>
      <trkpt lat="44.28876" lon="5.41663">
        <ele>633.3</ele>
        <time>2014-05-17T09:56:11Z</time>
      </trkpt>
      <trkpt lat="44.28873" lon="5.4173">
        <ele>632.1</ele>
        <time>2014-05-17T09:56:28Z</time>
      </trkpt>
      <trkpt lat="44.28893" lon="5.41689">
        <ele>627</ele>
        <time>2014-05-17T09:56:56Z</time>
      </trkpt>
      <trkpt lat="44.28905" lon="5.41746">
        <ele>622.2</ele>
        <time>2014-05-17T09:57:35Z</time>
      </trkpt>
      <trkpt lat="44.28923" lon="5.41804">
        <ele>616.6</ele>
        <time>2014-05-17T09:57:45Z</time>
      </trkpt>
      <trkpt lat="44.28942" lon="5.41864">
        <ele>610.4</ele>
        <time>2014-05-17T09:57:54Z</time>
      </trkpt>
      <trkpt lat="44.28961" lon="5.41921">
        <ele>604.9</ele>
        <time>2014-05-17T09:58:09Z</time>
      </trkpt>
      <trkpt lat="44.28981" lon="5.41985">
        <ele>599.3</ele>
        <time>2014-05-17T09:58:16Z</time>
      </trkpt>
      <trkpt lat="44.28987" lon="5.4205">
        <ele>596.1</ele>
        <time>2014-05-17T09:58:23Z</time>
      </trkpt>
      <trkpt lat="44.28961" lon="5.42103">
        <ele>596.6</ele>
        <time>2014-05-17T09:58:35Z</time>
      </trkpt>
      <trkpt lat="44.28938" lon="5.42159">
        <ele>596.5</ele>
        <time>2014-05-17T09:58:51Z</time>
      </trkpt>
      <trkpt lat="44.28919" lon="5.42217">
        <ele>596.5</ele>
        <time>2014-05-17T09:59:22Z</time>
      </trkpt>
      <trkpt lat="44.28951" lon="5.42266">
        <ele>601.3</ele>
        <time>2014-05-17T09:59:44Z</time>
      </trkpt>
      <trkpt lat="44.28979" lon="5.42322">
        <ele>604.1</ele>
        <time>2014-05-17T10:00:01Z</time>
      </trkpt>
      <trkpt lat="44.29005" lon="5.42375">
        <ele>605.2</ele>
        <time>2014-05-17T10:00:15Z</time>
      </trkpt>
      <trkpt lat="44.29032" lon="5.42435">
        <ele>606.8</ele>
        <time>2014-05-17T10:00:33Z</time>
      </trkpt>
      <trkpt lat="44.29065" lon="5.42484">
        <ele>610.4</ele>
        <time>2014-05-17T10:00:57Z</time>
      </trkpt>
      <trkpt lat="44.29075" lon="5.42547">
        <ele>611.2</ele>
        <time>2014-05-17T10:01:17Z</time>
      </trkpt>
      <trkpt lat="44.29095" lon="5.42607">
        <ele>610</ele>
        <time>2014-05-17T10:01:30Z</time>
      </trkpt>
      <trkpt lat="44.29124" lon="5.42658">
        <ele>610.7</ele>
        <time>2014-05-17T10:01:44Z</time>
      </trkpt>
      <trkpt lat="44.2915" lon="5.42711">
        <ele>611.4</ele>
        <time>2014-05-17T10:01:58Z</time>
      </trkpt>
      <trkpt lat="44.29158" lon="5.42772">
        <ele>611.6</ele>
        <time>2014-05-17T10:02:12Z</time>
      </trkpt>
      <trkpt lat="44.29148" lon="5.42836">
        <ele>612.3</ele>
        <time>2014-05-17T10:02:26Z</time>
      </trkpt>
      <trkpt lat="44.29142" lon="5.42899">
        <ele>612.6</ele>
        <time>2014-05-17T10:02:40Z</time>
      </trkpt>
      <trkpt lat="44.29145" lon="5.42963">
        <ele>613.4</ele>
        <time>2014-05-17T10:02:55Z</time>
      </trkpt>
      <trkpt lat="44.29154" lon="5.43027">
        <ele>614.5</ele>
        <time>2014-05-17T10:03:10Z</time>
      </trkpt>
      <trkpt lat="44.2916" lon="5.43091">
        <ele>615.8</ele>
        <time>2014-05-17T10:03:25Z</time>
      </trkpt>
      <trkpt lat="44.29168" lon="5.43155">
        <ele>617.7</ele>
        <time>2014-05-17T10:03:42Z</time>
      </trkpt>
      <trkpt lat="44.29174" lon="5.43219">
        <ele>619.4</ele>
        <time>2014-05-17T10:04:00Z</time>
      </trkpt>
      <trkpt lat="44.29181" lon="5.4328">
        <ele>620.6</ele>
        <time>2014-05-17T10:04:18Z</time>
      </trkpt>
      <trkpt lat="44.29181" lon="5.43344">
        <ele>621.8</ele>
        <time>2014-05-17T10:04:39Z</time>
      </trkpt>
      <trkpt lat="44.29155" lon="5.43404">
        <ele>618.6</ele>
        <time>2014-05-17T10:04:55Z</time>
      </trkpt>
      <trkpt lat="44.29153" lon="5.43469">
        <ele>616.7</ele>
        <time>2014-05-17T10:05:07Z</time>
      </trkpt>
      <trkpt lat="44.29152" lon="5.43542">
        <ele>614.4</ele>
        <time>2014-05-17T10:05:15Z</time>
      </trkpt>
      <trkpt lat="44.29153" lon="5.4361">
        <ele>616.4</ele>
        <time>2014-05-17T10:05:24Z</time>
      </trkpt>
      <trkpt lat="44.2915" lon="5.43678">
        <ele>618</ele>
        <time>2014-05-17T10:05:36Z</time>
      </trkpt>
      <trkpt lat="44.29142" lon="5.43743">
        <ele>619</ele>
        <time>2014-05-17T10:05:49Z</time>
      </trkpt>
      <trkpt lat="44.29146" lon="5.43805">
        <ele>620.7</ele>
        <time>2014-05-17T10:06:03Z</time>
      </trkpt>
      <trkpt lat="44.2914" lon="5.4387">
        <ele>622.4</ele>
        <time>2014-05-17T10:06:20Z</time>
      </trkpt>
      <trkpt lat="44.29138" lon="5.43935">
        <ele>624.6</ele>
        <time>2014-05-17T10:06:37Z</time>
      </trkpt>
      <trkpt lat="44.29137" lon="5.43998">
        <ele>625.9</ele>
        <time>2014-05-17T10:06:54Z</time>
      </trkpt>
      <trkpt lat="44.29136" lon="5.44065">
        <ele>628.7</ele>
        <time>2014-05-17T10:07:13Z</time>
      </trkpt>
      <trkpt lat="44.29132" lon="5.44128">
        <ele>631.6</ele>
        <time>2014-05-17T10:07:38Z</time>
      </trkpt>
    </trkseg>
  </trk>
</gpx>